Time;durP1;ratioP1;P1;durP2;ratioP2;P2;SDS_P1;SDS_P2;PMS_P1;PMS_P2;Temp;Humidity;BMP_temperature;BMP_pressure;BME280_temperature;BME280_humidity;BME280_pressure;Samples;Min_cycle;Max_cycle;Signal;HPM_P1;HPM_P2
2022/06/21 00:00:17;;;;;;;2.55;0.52;;;16.30;63.60;;;;;;5072289;28;20021;-65
2022/06/21 00:02:44;;;;;;;1.38;0.47;;;16.30;63.70;;;;;;5078375;28;20030;-65
2022/06/21 00:05:17;;;;;;;0.80;0.60;;;16.20;63.80;;;;;;5074389;28;20036;-64
2022/06/21 00:07:43;;;;;;;0.57;0.50;;;16.20;63.90;;;;;;5078204;28;20475;-64
2022/06/21 00:10:15;;;;;;;1.38;0.95;;;16.10;64.00;;;;;;5079316;28;20055;-64
2022/06/21 00:12:41;;;;;;;1.30;0.65;;;16.10;64.20;;;;;;5084778;28;20534;-65
2022/06/21 00:15:07;;;;;;;0.70;0.70;;;16.00;64.40;;;;;;5086298;28;20150;-64
2022/06/21 00:17:33;;;;;;;0.68;0.60;;;15.90;64.40;;;;;;5095532;28;20546;-65
2022/06/21 00:19:58;;;;;;;1.83;0.95;;;15.90;64.60;;;;;;5080026;28;20029;-65
2022/06/21 00:22:24;;;;;;;1.23;1.13;;;15.80;64.70;;;;;;5083454;28;20028;-66
2022/06/21 00:24:51;;;;;;;4.20;1.08;;;15.70;64.70;;;;;;5076112;28;20035;-64
2022/06/21 00:27:20;;;;;;;1.95;0.85;;;15.70;65.30;;;;;;5075249;28;20044;-65
2022/06/21 00:29:46;;;;;;;0.70;0.70;;;15.60;64.70;;;;;;5089936;28;20104;-66
2022/06/21 00:32:18;;;;;;;3.00;0.60;;;15.60;65.50;;;;;;5076275;28;20504;-64
2022/06/21 00:34:45;;;;;;;0.73;0.73;;;15.60;64.90;;;;;;5076812;28;20098;-64
2022/06/21 00:37:21;;;;;;;4.30;1.17;;;15.50;64.90;;;;;;5083710;28;20036;-64
2022/06/21 00:39:47;;;;;;;0.80;0.70;;;15.50;64.90;;;;;;5093782;28;20020;-65
2022/06/21 00:42:26;;;;;;;0.80;0.70;;;15.50;64.90;;;;;;5071306;28;20025;-65
2022/06/21 00:45:05;;;;;;;1.02;0.93;;;15.50;64.90;;;;;;5084784;28;20328;-64
2022/06/21 00:47:36;;;;;;;1.20;0.77;;;15.40;64.90;;;;;;5081746;28;20419;-65
2022/06/21 00:50:23;;;;;;;0.80;0.80;;;15.30;65.00;;;;;;5082073;28;20556;-66
2022/06/21 00:53:21;;;;;;;0.40;0.40;;;15.30;65.00;;;;;;5093816;28;20040;-65
2022/06/21 00:56:00;;;;;;;0.50;0.50;;;15.30;65.00;;;;;;5076872;28;20468;-65
2022/06/21 00:58:28;;;;;;;1.58;0.70;;;15.20;65.20;;;;;;5077408;28;20046;-64
2022/06/21 01:01:04;;;;;;;2.03;0.90;;;15.10;65.30;;;;;;5085130;28;20024;-65
2022/06/21 01:03:37;;;;;;;0.52;0.52;;;15.10;65.20;;;;;;5078042;28;20034;-65
2022/06/21 01:06:38;;;;;;;2.35;0.60;;;15.10;65.30;;;;;;5083105;28;20040;-65
2022/06/21 01:09:08;;;;;;;3.25;0.75;;;15.10;65.30;;;;;;5059154;28;20036;-66
2022/06/21 01:11:40;;;;;;;0.50;0.50;;;15.00;65.40;;;;;;5078777;28;20083;-63
2022/06/21 01:14:08;;;;;;;1.10;1.00;;;15.10;65.40;;;;;;5076099;28;20032;-65
2022/06/21 01:16:35;;;;;;;2.05;0.80;;;15.00;65.50;;;;;;5081968;28;20025;-65
2022/06/21 01:19:02;;;;;;;0.68;0.63;;;15.00;65.50;;;;;;5070967;28;20037;-64
2022/06/21 01:21:30;;;;;;;0.65;0.52;;;15.00;65.50;;;;;;5071197;28;20039;-65
2022/06/21 01:24:31;;;;;;;2.15;0.70;;;15.00;65.60;;;;;;5083769;28;20479;-64
2022/06/21 01:27:01;;;;;;;0.40;0.40;;;15.00;65.80;;;;;;5068439;28;20858;-64
2022/06/21 01:29:30;;;;;;;0.68;0.68;;;15.00;66.00;;;;;;5084893;28;20550;-64
2022/06/21 01:32:00;;;;;;;2.05;1.02;;;14.90;65.90;;;;;;5090447;28;20025;-64
2022/06/21 01:34:26;;;;;;;1.33;0.80;;;14.90;65.90;;;;;;5074429;28;20736;-64
2022/06/21 01:37:06;;;;;;;3.55;0.77;;;14.90;66.10;;;;;;5083955;28;20428;-65
2022/06/21 01:39:51;;;;;;;0.77;0.77;;;14.90;66.10;;;;;;5072050;28;20075;-66
2022/06/21 01:42:38;;;;;;;0.57;0.57;;;14.80;66.00;;;;;;5085790;28;20028;-65
2022/06/21 01:45:08;;;;;;;0.73;0.73;;;14.80;66.10;;;;;;5080111;28;20432;-65
2022/06/21 01:47:49;;;;;;;0.82;0.60;;;14.70;66.10;;;;;;5078116;28;20543;-64
2022/06/21 01:50:16;;;;;;;0.82;0.82;;;14.70;66.20;;;;;;5070485;28;20050;-65
2022/06/21 01:52:46;;;;;;;1.45;0.93;;;14.70;66.20;;;;;;5082956;28;20036;-65
2022/06/21 01:55:27;;;;;;;0.90;0.55;;;14.60;66.10;;;;;;5081880;28;20558;-66
2022/06/21 01:57:56;;;;;;;0.98;0.88;;;14.60;66.20;;;;;;5080287;28;20074;-65
2022/06/21 02:00:21;;;;;;;0.50;0.50;;;14.60;66.40;;;;;;5084390;28;20032;-64
2022/06/21 02:02:53;;;;;;;0.50;0.50;;;14.50;66.30;;;;;;5076070;28;20032;-65
2022/06/21 02:05:27;;;;;;;1.13;0.68;;;14.50;66.30;;;;;;5084828;28;20021;-65
2022/06/21 02:07:58;;;;;;;1.77;0.77;;;14.50;66.40;;;;;;5083621;28;20035;-65
2022/06/21 02:10:29;;;;;;;0.68;0.68;;;14.40;66.40;;;;;;5079745;28;20487;-65
2022/06/21 02:13:01;;;;;;;0.60;0.60;;;14.40;66.40;;;;;;5077671;28;20056;-65
2022/06/21 02:15:38;;;;;;;0.80;0.57;;;14.30;66.50;;;;;;5081563;28;20786;-65
2022/06/21 02:18:09;;;;;;;0.52;0.52;;;14.30;66.40;;;;;;5081320;28;20085;-65
2022/06/21 02:20:49;;;;;;;2.40;1.17;;;14.30;66.40;;;;;;5079788;28;20537;-65
2022/06/21 02:23:18;;;;;;;0.70;0.70;;;14.30;66.50;;;;;;5081023;28;20024;-65
2022/06/21 02:25:44;;;;;;;0.68;0.68;;;14.20;66.70;;;;;;5086972;28;20034;-65
2022/06/21 02:28:14;;;;;;;1.10;0.85;;;14.20;66.80;;;;;;5075887;28;20032;-66
2022/06/21 02:30:40;;;;;;;0.30;0.30;;;14.20;67.00;;;;;;5074466;28;20078;-64
2022/06/21 02:33:12;;;;;;;1.20;0.70;;;14.20;67.10;;;;;;5083679;28;20335;-65
2022/06/21 02:35:40;;;;;;;0.30;0.30;;;14.20;67.10;;;;;;5087841;28;20025;-65
2022/06/21 02:38:13;;;;;;;0.75;0.60;;;14.20;67.10;;;;;;5079585;28;20340;-63
2022/06/21 02:40:44;;;;;;;1.40;0.68;;;14.10;67.00;;;;;;5067967;28;20056;-64
2022/06/21 02:43:26;;;;;;;1.13;0.75;;;14.10;67.00;;;;;;5081685;28;20545;-66
2022/06/21 02:46:10;;;;;;;0.60;0.55;;;14.10;67.00;;;;;;5071850;28;20035;-65
2022/06/21 02:48:41;;;;;;;0.77;0.50;;;14.10;67.10;;;;;;5079881;28;20165;-65
2022/06/21 02:51:13;;;;;;;0.50;0.50;;;14.00;67.20;;;;;;5078689;28;20543;-64
2022/06/21 02:53:52;;;;;;;1.85;0.88;;;14.00;67.20;;;;;;5082765;28;20164;-66
2022/06/21 02:56:24;;;;;;;0.60;0.60;;;14.00;67.30;;;;;;5095305;28;20537;-65
2022/06/21 02:58:54;;;;;;;0.77;0.77;;;14.00;67.40;;;;;;5096771;28;20375;-65
2022/06/21 03:01:36;;;;;;;0.50;0.50;;;13.90;67.40;;;;;;5083037;28;20425;-63
2022/06/21 03:04:04;;;;;;;1.27;0.52;;;13.90;67.40;;;;;;5083336;28;20028;-65
2022/06/21 03:06:31;;;;;;;0.73;0.70;;;13.90;67.50;;;;;;5095239;28;20032;-65
2022/06/21 03:09:02;;;;;;;1.65;0.85;;;13.80;67.50;;;;;;5099138;28;20032;-65
2022/06/21 03:11:34;;;;;;;0.40;0.40;;;13.80;67.50;;;;;;5080178;28;20048;-65
2022/06/21 03:14:08;;;;;;;1.20;0.65;;;13.80;67.60;;;;;;5078960;28;20032;-65
2022/06/21 03:16:34;;;;;;;4.20;0.85;;;13.80;67.70;;;;;;5081921;28;20028;-64
2022/06/21 03:19:05;;;;;;;0.65;0.50;;;13.70;67.60;;;;;;5083405;28;20024;-65
2022/06/21 03:21:34;;;;;;;5.55;0.80;;;13.80;67.60;;;;;;5084497;28;20537;-66
2022/06/21 03:24:03;;;;;;;1.67;0.82;;;13.70;67.60;;;;;;5074288;28;20475;-65
2022/06/21 03:26:30;;;;;;;2.08;0.80;;;13.70;67.70;;;;;;5085671;28;20032;-65
2022/06/21 03:28:57;;;;;;;2.55;0.95;;;13.70;67.80;;;;;;5082714;28;20039;-66
2022/06/21 03:31:38;;;;;;;1.42;0.98;;;13.70;67.80;;;;;;5076229;28;20032;-65
2022/06/21 03:34:10;;;;;;;0.77;0.77;;;13.70;67.80;;;;;;5075432;28;20082;-65
2022/06/21 03:36:36;;;;;;;1.00;0.60;;;13.60;67.80;;;;;;5078600;28;20028;-65
2022/06/21 03:39:17;;;;;;;2.05;1.23;;;13.60;67.90;;;;;;5083099;28;20036;-65
2022/06/21 03:41:45;;;;;;;1.05;0.95;;;13.60;68.50;;;;;;5082579;28;20375;-65
2022/06/21 03:44:17;;;;;;;0.85;0.77;;;13.60;68.00;;;;;;5079119;28;20024;-65
2022/06/21 03:46:54;;;;;;;1.63;0.82;;;13.60;67.90;;;;;;5080181;28;20032;-65
2022/06/21 03:49:48;;;;;;;0.55;0.50;;;13.60;68.00;;;;;;5080457;28;20111;-65
2022/06/21 03:52:46;;;;;;;0.70;0.63;;;13.60;68.10;;;;;;5071635;28;20039;-64
2022/06/21 03:55:34;;;;;;;1.05;0.75;;;13.60;68.10;;;;;;5072309;28;20067;-65
2022/06/21 03:58:26;;;;;;;0.60;0.60;;;13.60;68.20;;;;;;5077400;28;20052;-65
2022/06/21 04:01:14;;;;;;;1.48;0.80;;;13.70;68.30;;;;;;5075703;28;20498;-65
2022/06/21 04:03:54;;;;;;;0.73;0.57;;;13.70;68.40;;;;;;5086591;28;20025;-65
2022/06/21 04:06:40;;;;;;;0.60;0.60;;;13.70;68.30;;;;;;5093798;28;20023;-65
2022/06/21 04:09:15;;;;;;;0.75;0.70;;;13.70;68.30;;;;;;5102759;27;20036;-65
2022/06/21 04:11:41;;;;;;;0.52;0.52;;;13.70;68.30;;;;;;5087321;28;20071;-65
2022/06/21 04:14:16;;;;;;;0.80;0.80;;;13.80;68.30;;;;;;5089984;28;20058;-65
2022/06/21 04:16:56;;;;;;;0.50;0.50;;;13.80;68.40;;;;;;5079075;28;20472;-65
2022/06/21 04:19:40;;;;;;;2.28;0.60;;;13.90;68.60;;;;;;5079437;28;20023;-65
2022/06/21 04:22:31;;;;;;;0.50;0.50;;;14.00;68.80;;;;;;5072501;28;20021;-66
2022/06/21 04:25:02;;;;;;;;;;;14.10;69.00;;;;;;5083042;28;20544;-65
2022/06/21 04:28:15;;;;;;;1.05;0.75;;;14.10;69.20;;;;;;5081869;28;19912;-65
2022/06/21 04:31:00;;;;;;;1.75;0.85;;;14.20;69.20;;;;;;5047078;28;20029;-65
2022/06/21 04:33:34;;;;;;;0.50;0.50;;;14.20;69.30;;;;;;5075839;28;20024;-66
2022/06/21 04:36:19;;;;;;;9.05;0.80;;;14.30;69.20;;;;;;5076053;28;20016;-64
2022/06/21 04:38:54;;;;;;;0.65;0.65;;;14.40;69.30;;;;;;5076484;28;20075;-65
2022/06/21 04:41:51;;;;;;;1.17;0.55;;;14.50;69.40;;;;;;5083602;28;20024;-65
2022/06/21 04:44:55;;;;;;;1.42;0.75;;;14.60;69.40;;;;;;5081551;28;20032;-65
2022/06/21 04:47:28;;;;;;;0.63;0.55;;;14.60;69.30;;;;;;5085283;28;20491;-65
2022/06/21 04:49:57;;;;;;;0.75;0.60;;;14.70;69.40;;;;;;5080834;28;20585;-66
2022/06/21 04:52:39;;;;;;;0.88;0.77;;;14.80;69.30;;;;;;5080175;28;20033;-65
2022/06/21 04:55:12;;;;;;;1.38;0.82;;;14.90;69.30;;;;;;5070896;28;20052;-64
2022/06/21 04:57:37;;;;;;;0.60;0.60;;;15.00;69.30;;;;;;5081992;28;20360;-64
2022/06/21 05:00:10;;;;;;;0.68;0.63;;;15.10;69.30;;;;;;5070925;28;20115;-64
2022/06/21 05:02:44;;;;;;;0.93;0.68;;;15.20;69.30;;;;;;5078229;28;20058;-65
2022/06/21 05:05:17;;;;;;;0.57;0.40;;;15.30;69.30;;;;;;5083521;28;20028;-65
2022/06/21 05:07:47;;;;;;;1.02;0.80;;;15.40;69.40;;;;;;5082220;28;20576;-65
2022/06/21 05:10:21;;;;;;;1.73;0.65;;;15.50;69.40;;;;;;5078019;28;20093;-64
2022/06/21 05:12:50;;;;;;;1.42;0.85;;;15.60;69.20;;;;;;5078460;28;20032;-65
2022/06/21 05:15:26;;;;;;;0.65;0.50;;;15.70;69.30;;;;;;5080509;28;20039;-66
2022/06/21 05:18:03;;;;;;;2.17;0.60;;;15.70;69.30;;;;;;5081590;28;20479;-66
2022/06/21 05:20:33;;;;;;;0.70;0.60;;;15.80;69.50;;;;;;5081561;28;20024;-65
2022/06/21 05:23:01;;;;;;;0.50;0.50;;;15.90;69.40;;;;;;5093677;28;20107;-65
2022/06/21 05:25:31;;;;;;;0.40;0.40;;;15.90;69.40;;;;;;5074299;28;20121;-65
2022/06/21 05:27:58;;;;;;;3.70;0.40;;;16.00;69.30;;;;;;5076840;28;20407;-64
2022/06/21 05:31:13;;;;;;;0.45;0.28;;;16.10;69.20;;;;;;5082691;28;20036;-64
2022/06/21 05:33:43;;;;;;;1.45;0.73;;;16.20;69.80;;;;;;5053273;28;20032;-66
2022/06/21 05:36:17;;;;;;;0.30;0.30;;;16.20;69.00;;;;;;5076357;28;20521;-66
2022/06/21 05:38:51;;;;;;;0.85;0.50;;;16.30;69.20;;;;;;5067815;28;20082;-65
2022/06/21 05:41:35;;;;;;;0.47;0.47;;;16.30;69.30;;;;;;5085147;28;20040;-65
2022/06/21 05:44:19;;;;;;;1.48;0.65;;;16.40;69.20;;;;;;5082954;28;20040;-65
2022/06/21 05:46:54;;;;;;;4.07;1.00;;;16.50;69.10;;;;;;5084603;28;20027;-65
2022/06/21 05:49:31;;;;;;;0.52;0.52;;;16.60;68.90;;;;;;5080534;28;20487;-65
2022/06/21 05:52:00;;;;;;;0.65;0.50;;;16.70;68.80;;;;;;5082274;28;20024;-65
2022/06/21 05:54:31;;;;;;;1.48;0.80;;;16.80;68.80;;;;;;5079826;28;20020;-65
2022/06/21 05:57:00;;;;;;;3.28;0.50;;;16.80;68.60;;;;;;5077025;28;20605;-65
2022/06/21 05:59:25;;;;;;;1.80;0.98;;;16.90;68.50;;;;;;5083647;28;20620;-65
2022/06/21 06:02:09;;;;;;;1.55;0.50;;;16.90;68.50;;;;;;5079964;28;20465;-64
2022/06/21 06:04:58;;;;;;;1.67;0.40;;;16.90;68.50;;;;;;5088472;28;20103;-65
2022/06/21 06:07:31;;;;;;;0.45;0.45;;;17.00;68.40;;;;;;5082770;28;20467;-65
2022/06/21 06:10:00;;;;;;;0.30;0.30;;;17.10;68.10;;;;;;5075311;28;20185;-65
2022/06/21 06:12:42;;;;;;;0.63;0.52;;;17.10;67.90;;;;;;5083351;28;20027;-65
2022/06/21 06:15:14;;;;;;;1.77;0.63;;;17.30;67.70;;;;;;5079365;28;20084;-65
2022/06/21 06:17:47;;;;;;;;;;;17.40;67.50;;;;;;5077095;28;20028;-64
2022/06/21 06:20:16;;;;;;;1.05;0.38;;;17.40;67.40;;;;;;5067967;28;20429;-65
2022/06/21 06:22:58;;;;;;;0.68;0.65;;;17.50;67.30;;;;;;5081885;28;20083;-63
2022/06/21 06:25:36;;;;;;;1.98;0.55;;;17.50;67.30;;;;;;5079308;28;20023;-65
2022/06/21 06:28:15;;;;;;;1.73;0.80;;;17.50;67.60;;;;;;5083925;28;20110;-65
2022/06/21 06:31:04;;;;;;;1.65;0.60;;;17.60;67.30;;;;;;5076734;28;20391;-65
2022/06/21 06:33:37;;;;;;;0.40;0.30;;;17.60;67.10;;;;;;5075305;28;20032;-65
2022/06/21 06:36:32;;;;;;;3.60;0.75;;;17.70;67.00;;;;;;5091404;28;20474;-65
2022/06/21 06:39:00;;;;;;;1.85;0.77;;;17.80;66.80;;;;;;5072809;28;20067;-65
2022/06/21 06:41:37;;;;;;;0.63;0.50;;;17.80;66.60;;;;;;5070121;28;20070;-65
2022/06/21 06:44:11;;;;;;;0.57;0.52;;;17.90;66.50;;;;;;5075854;28;20510;-65
2022/06/21 06:46:43;;;;;;;1.15;0.80;;;18.00;66.30;;;;;;5070889;28;20064;-65
2022/06/21 06:49:43;;;;;;;0.50;0.50;;;18.10;66.10;;;;;;5078303;28;20502;-65
2022/06/21 06:52:15;;;;;;;1.65;0.30;;;18.10;65.90;;;;;;5078351;28;20024;-66
2022/06/21 06:54:59;;;;;;;1.85;1.08;;;18.20;65.70;;;;;;5080660;28;20029;-66
2022/06/21 06:57:39;;;;;;;4.13;0.73;;;18.30;65.30;;;;;;5075210;28;20032;-66
2022/06/21 07:00:26;;;;;;;3.10;0.70;;;18.30;65.30;;;;;;5076012;28;20403;-66
2022/06/21 07:03:20;;;;;;;1.10;0.50;;;18.40;65.20;;;;;;5090296;28;20040;-66
2022/06/21 07:05:48;;;;;;;0.57;0.57;;;18.50;65.10;;;;;;5066998;28;20483;-67
2022/06/21 07:08:23;;;;;;;1.75;0.52;;;18.60;65.00;;;;;;5083517;28;20020;-66
2022/06/21 07:10:52;;;;;;;3.05;0.98;;;18.70;65.00;;;;;;5088587;28;20048;-67
2022/06/21 07:13:18;;;;;;;0.57;0.57;;;18.60;64.90;;;;;;5092307;28;20032;-65
2022/06/21 07:15:48;;;;;;;2.95;0.90;;;18.70;64.80;;;;;;5076250;28;20020;-66
2022/06/21 07:18:20;;;;;;;0.75;0.60;;;18.70;64.50;;;;;;5076314;28;20013;-65
2022/06/21 07:20:46;;;;;;;7.32;0.68;;;18.80;64.60;;;;;;5074163;28;20330;-65
2022/06/21 07:23:19;;;;;;;1.55;0.60;;;18.90;64.40;;;;;;5089813;28;20036;-66
2022/06/21 07:25:54;;;;;;;1.45;0.82;;;18.90;64.20;;;;;;5080998;28;20505;-65
2022/06/21 07:28:39;;;;;;;0.50;0.50;;;19.00;64.00;;;;;;5086356;28;20114;-66
2022/06/21 07:31:16;;;;;;;0.68;0.68;;;19.10;63.70;;;;;;5081194;28;20475;-65
2022/06/21 07:34:00;;;;;;;5.30;0.70;;;19.10;63.30;;;;;;5088794;28;20036;-65
2022/06/21 07:36:39;;;;;;;0.52;0.50;;;19.20;63.30;;;;;;5084510;28;20058;-64
2022/06/21 07:39:09;;;;;;;1.75;0.70;;;19.20;63.10;;;;;;5077915;28;20056;-64
2022/06/21 07:41:43;;;;;;;0.80;0.65;;;19.20;63.00;;;;;;5081552;28;20065;-65
2022/06/21 07:44:28;;;;;;;7.22;1.27;;;19.20;63.00;;;;;;5066801;28;20035;-64
2022/06/21 07:46:59;;;;;;;1.13;0.70;;;19.20;63.10;;;;;;5076832;28;20025;-64
2022/06/21 07:49:35;;;;;;;0.47;0.47;;;19.20;62.70;;;;;;5083511;28;20469;-66
2022/06/21 07:52:09;;;;;;;1.50;0.70;;;19.20;62.50;;;;;;5081038;28;20486;-64
2022/06/21 07:54:42;;;;;;;0.65;0.65;;;19.20;62.30;;;;;;5094777;28;20131;-65
2022/06/21 07:57:15;;;;;;;1.75;0.88;;;19.20;62.40;;;;;;5084105;28;20371;-66
2022/06/21 07:59:46;;;;;;;0.40;0.38;;;19.30;62.20;;;;;;5075082;28;20059;-66
2022/06/21 08:08:08;;;;;;;0.40;0.40;;;19.70;60.80;;;;;;5071822;28;20046;-66
2022/06/21 08:10:48;;;;;;;0.75;0.40;;;19.80;60.40;;;;;;5076867;28;20116;-65
2022/06/21 08:13:15;;;;;;;0.40;0.40;;;19.80;60.40;;;;;;5089366;28;20042;-68
2022/06/21 08:15:50;;;;;;;3.00;0.60;;;19.90;60.30;;;;;;5077278;28;20024;-66
2022/06/21 08:18:34;;;;;;;0.70;0.70;;;20.10;60.10;;;;;;5093460;28;20024;-64
2022/06/21 08:21:08;;;;;;;1.77;0.85;;;20.20;58.80;;;;;;5087886;28;20028;-64
2022/06/21 08:23:50;;;;;;;0.82;0.47;;;20.10;59.00;;;;;;5086947;28;20400;-65
2022/06/21 08:26:27;;;;;;;0.67;0.40;;;20.20;59.30;;;;;;5085179;28;20021;-65
2022/06/21 08:29:14;;;;;;;0.50;0.50;;;20.30;59.20;;;;;;5088103;28;20134;-65
2022/06/21 08:31:45;;;;;;;0.95;0.50;;;20.50;59.10;;;;;;5069837;28;20064;-64
2022/06/21 08:34:14;;;;;;;1.95;0.93;;;20.60;58.70;;;;;;5090433;28;20264;-64
2022/06/21 08:36:48;;;;;;;0.80;0.50;;;20.80;58.40;;;;;;5085330;28;20445;-65
2022/06/21 08:39:29;;;;;;;1.58;0.75;;;21.00;57.80;;;;;;5082003;28;20020;-65
2022/06/21 08:42:26;;;;;;;0.47;0.47;;;20.90;57.20;;;;;;5089868;28;20020;-64
2022/06/21 08:48:19;;;;;;;0.63;0.57;;;21.10;56.70;;;;;;5088245;28;20086;-64
2022/06/21 08:51:04;;;;;;;1.35;0.90;;;21.20;56.60;;;;;;5082309;28;20028;-64
2022/06/21 08:53:45;;;;;;;3.15;0.50;;;21.30;56.40;;;;;;5078482;28;20032;-64
2022/06/21 08:56:21;;;;;;;0.70;0.65;;;21.40;56.30;;;;;;5087474;28;20027;-65
2022/06/21 08:59:08;;;;;;;1.42;0.52;;;21.40;55.50;;;;;;5081710;28;20483;-65
2022/06/21 09:01:45;;;;;;;0.73;0.73;;;21.30;55.40;;;;;;5075875;28;20153;-64
2022/06/21 09:04:19;;;;;;;0.73;0.68;;;21.30;55.80;;;;;;5087423;28;20035;-65
2022/06/21 09:06:48;;;;;;;0.80;0.65;;;21.40;55.20;;;;;;5076680;28;20085;-66
2022/06/21 09:09:21;;;;;;;0.47;0.47;;;21.50;54.70;;;;;;5078902;28;20021;-66
2022/06/21 09:12:09;;;;;;;0.65;0.38;;;21.60;54.80;;;;;;5074982;28;20044;-65
2022/06/21 09:14:51;;;;;;;0.60;0.60;;;21.80;54.50;;;;;;5081351;28;20438;-66
2022/06/21 09:17:31;;;;;;;0.55;0.50;;;21.80;52.20;;;;;;5072719;28;20460;-65
2022/06/21 09:20:08;;;;;;;1.73;0.30;;;21.80;52.10;;;;;;5087517;28;20304;-65
2022/06/21 09:22:39;;;;;;;0.47;0.47;;;21.80;52.70;;;;;;5078563;28;20046;-65
2022/06/21 09:25:51;;;;;;;0.60;0.47;;;21.90;52.90;;;;;;5085069;28;20032;-64
2022/06/21 09:28:26;;;;;;;1.73;0.40;;;22.00;52.30;;;;;;5071025;28;20040;-66
2022/06/21 09:31:23;;;;;;;0.70;0.50;;;22.10;52.40;;;;;;5080419;28;20393;-65
2022/06/21 09:34:06;;;;;;;0.30;0.30;;;22.20;52.50;;;;;;5080804;28;20032;-65
2022/06/21 09:36:44;;;;;;;0.75;0.68;;;22.30;52.30;;;;;;5077946;28;20063;-65
2022/06/21 09:39:15;;;;;;;0.50;0.50;;;22.50;52.10;;;;;;5082086;28;20047;-66
2022/06/21 09:41:47;;;;;;;2.70;0.82;;;22.70;50.20;;;;;;5070451;28;20028;-65
2022/06/21 09:44:42;;;;;;;0.50;0.50;;;22.60;49.40;;;;;;5069547;28;20032;-64
2022/06/21 09:47:22;;;;;;;0.30;0.30;;;22.40;48.30;;;;;;5054506;28;20435;-64
2022/06/21 09:50:17;;;;;;;0.30;0.30;;;22.30;49.00;;;;;;5072149;28;20028;-65
2022/06/21 09:53:06;;;;;;;0.40;0.40;;;22.40;49.40;;;;;;5076721;28;20041;-66
2022/06/21 09:55:53;;;;;;;1.17;0.38;;;22.50;49.70;;;;;;5079393;28;20027;-66
2022/06/21 09:58:48;;;;;;;0.30;0.30;;;22.70;49.50;;;;;;5070315;28;20534;-66
2022/06/21 10:01:28;;;;;;;0.57;0.40;;;22.80;49.10;;;;;;5070592;28;21842;-66
2022/06/21 10:04:24;;;;;;;0.30;0.30;;;22.90;49.30;;;;;;5056853;28;20039;-66
2022/06/21 10:06:59;;;;;;;0.40;0.40;;;23.00;49.20;;;;;;5063421;28;20061;-66
2022/06/21 10:09:44;;;;;;;0.55;0.40;;;23.00;47.80;;;;;;5074281;28;20024;-66
2022/06/21 10:12:50;;;;;;;0.43;0.35;;;22.90;46.70;;;;;;5082210;28;20054;-65
2022/06/21 10:15:40;;;;;;;0.70;0.28;;;22.90;47.60;;;;;;5075272;28;20028;-66
2022/06/21 10:18:20;;;;;;;0.20;0.20;;;22.80;47.70;;;;;;5078500;28;20020;-66
2022/06/21 10:20:58;;;;;;;0.38;0.30;;;22.90;48.10;;;;;;5073908;28;20024;-65
2022/06/21 10:24:09;;;;;;;0.52;0.30;;;22.90;48.00;;;;;;5083261;28;20374;-65
2022/06/21 10:27:05;;;;;;;3.22;0.45;;;23.10;47.90;;;;;;5078316;28;20124;-66
2022/06/21 10:29:40;;;;;;;0.30;0.30;;;23.30;47.90;;;;;;5074415;28;20032;-66
2022/06/21 10:32:08;;;;;;;0.28;0.28;;;23.60;47.80;;;;;;5069132;28;20028;-65
2022/06/21 10:35:12;;;;;;;0.65;0.55;;;23.90;47.00;;;;;;5071390;28;20564;-66
2022/06/21 10:38:16;;;;;;;0.90;0.40;;;24.10;46.70;;;;;;5080454;28;20028;-64
2022/06/21 10:40:54;;;;;;;0.30;0.30;;;24.20;46.20;;;;;;5068688;28;20357;-64
2022/06/21 10:44:04;;;;;;;0.40;0.40;;;24.20;45.80;;;;;;5074766;28;20028;-65
2022/06/21 10:46:32;;;;;;;0.98;0.50;;;24.20;46.30;;;;;;5083070;28;20033;-65
2022/06/21 10:49:26;;;;;;;0.32;0.32;;;24.30;46.40;;;;;;5078914;28;20032;-64
2022/06/21 10:52:29;;;;;;;0.52;0.50;;;24.50;46.30;;;;;;5080913;28;20502;-65
2022/06/21 10:55:05;;;;;;;0.28;0.28;;;24.60;45.70;;;;;;4994780;28;20366;-64
2022/06/21 10:57:40;;;;;;;0.35;0.35;;;24.70;45.70;;;;;;5070753;28;20082;-66
2022/06/21 11:03:20;;;;;;;0.45;0.40;;;25.00;44.60;;;;;;5084728;28;20026;-65
2022/06/21 11:06:23;;;;;;;0.40;0.30;;;25.00;44.40;;;;;;5081684;28;20036;-64
2022/06/21 11:09:03;;;;;;;0.35;0.35;;;25.10;44.20;;;;;;5076091;28;20131;-64
2022/06/21 11:11:31;;;;;;;1.27;0.30;;;25.30;43.30;;;;;;5073160;28;20048;-65
2022/06/21 11:14:16;;;;;;;0.30;0.30;;;25.30;42.90;;;;;;5081829;28;20456;-65
2022/06/21 11:17:03;;;;;;;0.57;0.55;;;25.30;43.20;;;;;;5080106;28;20040;-64
2022/06/21 11:19:47;;;;;;;0.65;0.60;;;25.30;42.90;;;;;;5085963;28;20468;-65
2022/06/21 11:22:28;;;;;;;0.40;0.40;;;25.30;42.90;;;;;;5080127;28;20023;-64
2022/06/21 11:25:20;;;;;;;2.17;0.50;;;25.10;41.00;;;;;;5089623;28;20032;-65
2022/06/21 11:28:11;;;;;;;0.30;0.30;;;25.10;41.90;;;;;;5072915;28;20059;-65
2022/06/21 11:30:55;;;;;;;0.30;0.30;;;25.10;42.40;;;;;;5080642;28;20029;-65
2022/06/21 11:33:51;;;;;;;2.05;0.60;;;25.10;42.50;;;;;;5082026;28;20118;-65
2022/06/21 11:36:35;;;;;;;0.57;0.52;;;25.00;42.70;;;;;;5081844;28;20020;-64
2022/06/21 11:39:11;;;;;;;0.30;0.30;;;25.00;43.20;;;;;;5090548;28;20029;-65
2022/06/21 11:44:59;;;;;;;0.30;0.30;;;25.10;42.30;;;;;;5082062;28;20165;-66
2022/06/21 11:47:49;;;;;;;0.80;0.57;;;25.00;43.00;;;;;;5071439;28;20025;-66
2022/06/21 11:50:52;;;;;;;0.30;0.30;;;25.20;43.50;;;;;;5072463;28;20036;-65
2022/06/21 11:53:45;;;;;;;0.50;0.40;;;25.40;43.20;;;;;;5080577;28;20028;-65
2022/06/21 11:56:14;;;;;;;0.65;0.30;;;25.80;41.30;;;;;;5085013;28;20058;-66
2022/06/21 11:59:09;;;;;;;0.40;0.40;;;26.00;41.20;;;;;;5079891;28;20056;-66
2022/06/21 12:01:49;;;;;;;0.30;0.30;;;26.30;41.10;;;;;;5060565;28;20039;-66
2022/06/21 12:04:41;;;;;;;0.45;0.30;;;26.50;40.60;;;;;;5084500;28;20504;-67
2022/06/21 12:07:36;;;;;;;0.47;0.47;;;26.60;40.30;;;;;;5073006;28;20043;-67
2022/06/21 12:10:14;;;;;;;0.30;0.30;;;26.60;39.90;;;;;;5057800;28;20182;-67
2022/06/21 12:12:51;;;;;;;0.60;0.40;;;26.40;39.60;;;;;;5079207;28;20047;-67
2022/06/21 12:15:37;;;;;;;0.30;0.30;;;26.30;40.10;;;;;;5069991;28;20024;-66
2022/06/21 12:18:22;;;;;;;0.50;0.50;;;26.40;40.50;;;;;;5076547;28;20534;-67
2022/06/21 12:21:04;;;;;;;1.73;0.40;;;26.60;39.70;;;;;;5077967;28;20112;-66
2022/06/21 12:23:45;;;;;;;0.55;0.55;;;26.70;38.60;;;;;;5074606;28;20028;-65
2022/06/21 12:26:17;;;;;;;0.50;0.50;;;26.60;38.10;;;;;;5077331;28;20520;-65
2022/06/21 12:28:44;;;;;;;0.68;0.50;;;26.50;38.80;;;;;;5077585;28;20032;-65
2022/06/21 12:31:21;;;;;;;0.63;0.50;;;26.70;40.10;;;;;;5077925;28;20078;-65
2022/06/21 12:33:52;;;;;;;0.30;0.30;;;26.80;39.60;;;;;;5083540;28;20036;-65
2022/06/21 12:36:31;;;;;;;0.40;0.40;;;26.70;39.40;;;;;;5073117;28;20016;-65
2022/06/21 12:39:03;;;;;;;0.68;0.63;;;26.50;39.00;;;;;;5076998;28;20032;-65
2022/06/21 12:42:02;;;;;;;0.30;0.30;;;26.20;38.70;;;;;;5077941;28;20020;-66
2022/06/21 12:44:43;;;;;;;0.47;0.30;;;26.10;39.60;;;;;;5038732;28;20028;-66
2022/06/21 12:47:33;;;;;;;1.92;0.35;;;26.10;40.00;;;;;;5076451;28;20423;-66
2022/06/21 12:50:20;;;;;;;0.30;0.30;;;26.40;40.20;;;;;;5075337;28;20495;-66
2022/06/21 12:52:58;;;;;;;0.40;0.32;;;26.60;39.60;;;;;;5073869;28;20020;-66
2022/06/21 12:55:42;;;;;;;0.30;0.30;;;26.80;39.60;;;;;;5087792;28;20098;-66
2022/06/21 12:58:35;;;;;;;0.57;0.38;;;26.80;38.50;;;;;;5089795;28;20595;-66
2022/06/21 13:01:09;;;;;;;0.20;0.20;;;26.70;39.10;;;;;;5065125;28;20353;-66
2022/06/21 13:04:13;;;;;;;0.40;0.40;;;26.60;38.90;;;;;;5089760;28;20035;-65
2022/06/21 13:07:03;;;;;;;0.40;0.40;;;26.60;39.00;;;;;;5085786;28;20035;-67
2022/06/21 13:09:39;;;;;;;0.40;0.40;;;26.60;39.20;;;;;;5086966;28;20078;-66
2022/06/21 13:12:42;;;;;;;1.27;0.65;;;26.70;39.50;;;;;;5084714;28;20039;-66
2022/06/21 13:15:08;;;;;;;0.40;0.40;;;26.70;39.30;;;;;;5056033;28;20048;-65
2022/06/21 13:17:52;;;;;;;0.40;0.40;;;26.70;39.60;;;;;;5085627;28;20036;-64
2022/06/21 13:20:21;;;;;;;1.67;0.35;;;26.60;39.70;;;;;;5072805;28;20020;-65
2022/06/21 13:22:55;;;;;;;0.30;0.30;;;26.60;40.00;;;;;;5074688;28;20040;-66
2022/06/21 13:25:49;;;;;;;0.40;0.40;;;26.50;40.20;;;;;;5074376;28;20037;-65
2022/06/21 13:28:33;;;;;;;0.30;0.30;;;26.40;40.00;;;;;;5083755;28;20542;-64
2022/06/21 13:31:22;;;;;;;0.40;0.40;;;26.20;39.90;;;;;;5080257;28;20032;-65
2022/06/21 13:33:54;;;;;;;0.40;0.40;;;26.10;40.50;;;;;;5069493;28;20047;-65
2022/06/21 13:36:28;;;;;;;;;;;26.10;40.70;;;;;;5072644;28;20032;-65
2022/06/21 13:39:00;;;;;;;0.28;0.28;;;26.20;40.90;;;;;;5080534;28;20284;-66
2022/06/21 13:44:41;;;;;;;0.80;0.40;;;26.20;40.80;;;;;;5075500;28;20510;-67
2022/06/21 13:47:12;;;;;;;1.08;0.40;;;26.20;40.70;;;;;;5078600;28;20023;-68
2022/06/21 13:49:45;;;;;;;0.30;0.30;;;26.20;40.70;;;;;;5084221;28;20053;-66
2022/06/21 13:52:23;;;;;;;0.50;0.50;;;26.10;40.90;;;;;;5083037;28;20019;-66
2022/06/21 13:55:04;;;;;;;1.50;0.35;;;26.20;40.80;;;;;;5077977;28;20034;-67
2022/06/21 13:57:38;;;;;;;1.27;0.70;;;26.10;40.70;;;;;;5083070;28;20085;-66
2022/06/21 14:00:05;;;;;;;0.55;0.50;;;26.20;40.30;;;;;;5081977;28;20115;-66
2022/06/21 14:02:42;;;;;;;0.40;0.40;;;26.20;40.70;;;;;;5089047;28;21291;-65